PSFER EDDF-EDDL
Flight info
| Callsign | PSFER |
|---|---|
| Flight time | N/A |
| Altitude | 24000 |
| Route | MARUN3W/25C MARUN Y152 ARPEG Z850 ADEMI T854 DOMUX DOMUX1A |
| Aircraft | E35L/M-SABDFGRW/S |
Departure
| Time | 2026-05-04 19:06 |
|---|---|
| Airport | Frankfurt Main Airport (EDDF) |
Arrival
| Time | N/A |
|---|---|
| Airport | Düsseldorf Airport (EDDL) |
| Time | Latitude | Longitude | Altitude | Speed | Heading |
|---|---|---|---|---|---|
| 2026-05-04 18:26 | 50.02811 | 8.57742 | 347 ft | 0 kts | 160° |
| 2026-05-04 18:53 | 50.02810 | 8.57745 | 346 ft | 0 kts | 124° |
| 2026-05-04 18:53 | 50.02831 | 8.57760 | 346 ft | 7 kts | 350° |
| 2026-05-04 18:54 | 50.02877 | 8.57704 | 346 ft | 9 kts | 303° |
| 2026-05-04 18:54 | 50.02889 | 8.57576 | 345 ft | 14 kts | 261° |
| 2026-05-04 18:54 | 50.02848 | 8.57403 | 343 ft | 19 kts | 248° |
| 2026-05-04 18:54 | 50.02829 | 8.57329 | 343 ft | 0 kts | 250° |
| 2026-05-04 18:55 | 50.02816 | 8.57270 | 343 ft | 20 kts | 248° |
| 2026-05-04 18:55 | 50.02952 | 8.57019 | 343 ft | 21 kts | 339° |
| 2026-05-04 18:55 | 50.03073 | 8.56952 | 342 ft | 16 kts | 341° |
| 2026-05-04 18:56 | 50.03085 | 8.56943 | 342 ft | 0 kts | 339° |
| 2026-05-04 18:58 | 50.03086 | 8.56943 | 342 ft | 0 kts | 339° |
| 2026-05-04 18:58 | 50.03123 | 8.56920 | 341 ft | 16 kts | 338° |
| 2026-05-04 18:58 | 50.03243 | 8.56856 | 340 ft | 12 kts | 348° |
| 2026-05-04 18:59 | 50.03310 | 8.56934 | 340 ft | 15 kts | 70° |
| 2026-05-04 18:59 | 50.03352 | 8.57111 | 338 ft | 20 kts | 69° |
| 2026-05-04 18:59 | 50.03404 | 8.57324 | 340 ft | 22 kts | 70° |
| 2026-05-04 18:59 | 50.03459 | 8.57554 | 345 ft | 22 kts | 70° |
| 2026-05-04 19:00 | 50.03511 | 8.57779 | 352 ft | 22 kts | 70° |
| 2026-05-04 19:00 | 50.03557 | 8.57969 | 359 ft | 7 kts | 70° |
| 2026-05-04 19:00 | 50.03576 | 8.58052 | 361 ft | 9 kts | 69° |
| 2026-05-04 19:00 | 50.03635 | 8.58089 | 362 ft | 11 kts | 339° |
| 2026-05-04 19:01 | 50.03686 | 8.58062 | 363 ft | 0 kts | 340° |
| 2026-05-04 19:01 | 50.03717 | 8.58046 | 363 ft | 18 kts | 340° |
| 2026-05-04 19:02 | 50.03894 | 8.57942 | 363 ft | 29 kts | 339° |
| 2026-05-04 19:02 | 50.04007 | 8.57879 | 363 ft | 0 kts | 339° |
| 2026-05-04 19:02 | 50.04021 | 8.57869 | 363 ft | 8 kts | 338° |
| 2026-05-04 19:02 | 50.04145 | 8.57796 | 362 ft | 21 kts | 340° |
| 2026-05-04 19:03 | 50.04181 | 8.57777 | 362 ft | 0 kts | 340° |
| 2026-05-04 19:04 | 50.04184 | 8.57775 | 362 ft | 0 kts | 341° |
| 2026-05-04 19:04 | 50.04219 | 8.57756 | 363 ft | 19 kts | 340° |
| 2026-05-04 19:04 | 50.04264 | 8.57656 | 362 ft | 0 kts | 251° |
| 2026-05-04 19:05 | 50.04230 | 8.57508 | 361 ft | 53 kts | 250° |
| 2026-05-04 19:06 | 50.03998 | 8.56525 | 355 ft | 140 kts | 252° |
| 2026-05-04 19:06 | 50.03692 | 8.54910 | 937 ft | 168 kts | 272° |
| 2026-05-04 19:06 | 50.04021 | 8.53237 | 1926 ft | 172 kts | 287° |
| 2026-05-04 19:06 | 50.04653 | 8.52140 | 1902 ft | 188 kts | 354° |
| 2026-05-04 19:07 | 50.06034 | 8.51211 | 2093 ft | 232 kts | 334° |
| 2026-05-04 19:07 | 50.07191 | 8.49508 | 3168 ft | 234 kts | 319° |
| 2026-05-04 19:07 | 50.08255 | 8.47883 | 4593 ft | 212 kts | 317° |
| 2026-05-04 19:07 | 50.08558 | 8.45871 | 5205 ft | 206 kts | 252° |
| 2026-05-04 19:08 | 50.07749 | 8.44214 | 5637 ft | 201 kts | 211° |
| 2026-05-04 19:08 | 50.06435 | 8.43851 | 6046 ft | 195 kts | 173° |
| 2026-05-04 19:08 | 50.05188 | 8.44595 | 6450 ft | 190 kts | 152° |
| 2026-05-04 19:08 | 50.04052 | 8.45689 | 6554 ft | 201 kts | 162° |
| 2026-05-04 19:09 | 50.02659 | 8.45760 | 6651 ft | 207 kts | 204° |
| 2026-05-04 19:09 | 50.01305 | 8.45190 | 7003 ft | 201 kts | 206° |
| 2026-05-04 19:09 | 50.00124 | 8.44126 | 7266 ft | 197 kts | 223° |
| 2026-05-04 19:09 | 49.99050 | 8.42685 | 7289 ft | 212 kts | 225° |
| 2026-05-04 19:10 | 49.97865 | 8.41270 | 7295 ft | 226 kts | 202° |
| 2026-05-04 19:10 | 49.96383 | 8.40298 | 7345 ft | 239 kts | 210° |
| 2026-05-04 19:10 | 49.94834 | 8.38928 | 7745 ft | 268 kts | 215° |
| 2026-05-04 19:10 | 49.93688 | 8.36788 | 8996 ft | 267 kts | 247° |
| 2026-05-04 19:11 | 49.93441 | 8.33992 | 10008 ft | 278 kts | 276° |
| 2026-05-04 19:11 | 49.94218 | 8.31183 | 10862 ft | 296 kts | 307° |
| 2026-05-04 19:11 | 49.95859 | 8.29265 | 11710 ft | 312 kts | 336° |
| 2026-05-04 19:11 | 49.98006 | 8.28730 | 12526 ft | 327 kts | 4° |
| 2026-05-04 19:12 | 50.00305 | 8.29185 | 13026 ft | 349 kts | 7° |
| 2026-05-04 19:12 | 50.05417 | 8.29101 | 13055 ft | 376 kts | 358° |
| 2026-05-04 19:12 | 50.08017 | 8.29032 | 13067 ft | 382 kts | 7° |
| 2026-05-04 19:13 | 50.10470 | 8.30296 | 13091 ft | 386 kts | 29° |
| 2026-05-04 19:13 | 50.12900 | 8.32141 | 13022 ft | 391 kts | 18° |
| 2026-05-04 19:13 | 50.15409 | 8.33329 | 14191 ft | 369 kts | 18° |
| 2026-05-04 19:13 | 50.17716 | 8.34524 | 15711 ft | 355 kts | 17° |
| 2026-05-04 19:14 | 50.20050 | 8.35746 | 16625 ft | 361 kts | 17° |
| 2026-05-04 19:14 | 50.22437 | 8.37001 | 17391 ft | 370 kts | 17° |
| 2026-05-04 19:14 | 50.24876 | 8.38284 | 18277 ft | 374 kts | 17° |
| 2026-05-04 19:14 | 50.27350 | 8.39587 | 19129 ft | 380 kts | 17° |
| 2026-05-04 19:15 | 50.29821 | 8.40899 | 19997 ft | 384 kts | 18° |
| 2026-05-04 19:15 | 50.32347 | 8.42277 | 20944 ft | 391 kts | 18° |
| 2026-05-04 19:15 | 50.34905 | 8.43670 | 21971 ft | 395 kts | 18° |
| 2026-05-04 19:15 | 50.37446 | 8.45056 | 22910 ft | 401 kts | 18° |
| 2026-05-04 19:16 | 50.39997 | 8.46449 | 23782 ft | 407 kts | 18° |
| 2026-05-04 19:16 | 50.42737 | 8.47947 | 24049 ft | 432 kts | 18° |
| 2026-05-04 19:16 | 50.45633 | 8.49532 | 24070 ft | 458 kts | 18° |
| 2026-05-04 19:16 | 50.48671 | 8.51132 | 24055 ft | 470 kts | 15° |
| 2026-05-04 19:17 | 50.51831 | 8.52614 | 24057 ft | 476 kts | 15° |
| 2026-05-04 19:17 | 50.55000 | 8.54130 | 24056 ft | 476 kts | 15° |
| 2026-05-04 19:17 | 50.58150 | 8.55639 | 24056 ft | 474 kts | 15° |
| 2026-05-04 19:17 | 50.61299 | 8.57151 | 24055 ft | 472 kts | 15° |
| 2026-05-04 19:18 | 50.64313 | 8.58599 | 24058 ft | 470 kts | 15° |
| 2026-05-04 19:18 | 50.67455 | 8.60111 | 24053 ft | 469 kts | 15° |
| 2026-05-04 19:18 | 50.70573 | 8.61614 | 24056 ft | 468 kts | 15° |
| 2026-05-04 19:18 | 50.73609 | 8.63079 | 24057 ft | 461 kts | 15° |
| 2026-05-04 19:19 | 50.76521 | 8.64459 | 24042 ft | 434 kts | 12° |
| 2026-05-04 19:19 | 50.79407 | 8.64855 | 24040 ft | 403 kts | 351° |
| 2026-05-04 19:19 | 50.81989 | 8.63750 | 24048 ft | 374 kts | 329° |
| 2026-05-04 19:19 | 50.84209 | 8.61794 | 24049 ft | 361 kts | 320° |
| 2026-05-04 19:20 | 50.86079 | 8.59261 | 24061 ft | 349 kts | 310° |
| 2026-05-04 19:20 | 50.87702 | 8.56493 | 24054 ft | 341 kts | 307° |
| 2026-05-04 19:20 | 50.89264 | 8.53677 | 24057 ft | 340 kts | 306° |
| 2026-05-04 19:20 | 50.90815 | 8.50819 | 24068 ft | 351 kts | 306° |
| 2026-05-04 19:21 | 50.92341 | 8.47987 | 24062 ft | 358 kts | 306° |
| 2026-05-04 19:21 | 50.93983 | 8.44927 | 24046 ft | 364 kts | 306° |
| 2026-05-04 19:21 | 50.95601 | 8.41904 | 24028 ft | 369 kts | 306° |
| 2026-05-04 19:21 | 50.97269 | 8.38782 | 24037 ft | 373 kts | 306° |
| 2026-05-04 19:22 | 50.98937 | 8.35658 | 24035 ft | 373 kts | 306° |
| 2026-05-04 19:22 | 51.00585 | 8.32568 | 24027 ft | 364 kts | 306° |
| 2026-05-04 19:22 | 51.02196 | 8.29541 | 24025 ft | 356 kts | 306° |
| 2026-05-04 19:22 | 51.03773 | 8.26575 | 24024 ft | 348 kts | 306° |
| 2026-05-04 19:23 | 51.05300 | 8.23697 | 23653 ft | 351 kts | 306° |
| 2026-05-04 19:23 | 51.06852 | 8.20773 | 23158 ft | 349 kts | 306° |
| 2026-05-04 19:23 | 51.08417 | 8.17819 | 22639 ft | 343 kts | 306° |
| 2026-05-04 19:23 | 51.09892 | 8.15035 | 22078 ft | 325 kts | 306° |
| 2026-05-04 19:24 | 51.11216 | 8.12533 | 21587 ft | 310 kts | 306° |
| 2026-05-04 19:24 | 51.12595 | 8.09921 | 21116 ft | 299 kts | 306° |
| 2026-05-04 19:24 | 51.13962 | 8.07323 | 20615 ft | 311 kts | 305° |
| 2026-05-04 19:24 | 51.15326 | 8.04735 | 20115 ft | 314 kts | 306° |
| 2026-05-04 19:25 | 51.16741 | 8.02050 | 19633 ft | 316 kts | 305° |
| 2026-05-04 19:25 | 51.18121 | 7.99367 | 19135 ft | 317 kts | 305° |
| 2026-05-04 19:25 | 51.19504 | 7.96639 | 18622 ft | 318 kts | 306° |
| 2026-05-04 19:25 | 51.20871 | 7.93914 | 18123 ft | 319 kts | 305° |
| 2026-05-04 19:26 | 51.22345 | 7.91364 | 17631 ft | 323 kts | 321° |
| 2026-05-04 19:26 | 51.24353 | 7.89893 | 17172 ft | 327 kts | 347° |
| 2026-05-04 19:26 | 51.26597 | 7.89479 | 16706 ft | 328 kts | 353° |
| 2026-05-04 19:26 | 51.28882 | 7.89144 | 16208 ft | 327 kts | 353° |
| 2026-05-04 19:27 | 51.31086 | 7.88821 | 15651 ft | 317 kts | 354° |
| 2026-05-04 19:27 | 51.33243 | 7.88514 | 15154 ft | 313 kts | 353° |
| 2026-05-04 19:27 | 51.35414 | 7.88201 | 14662 ft | 317 kts | 353° |
| 2026-05-04 19:27 | 51.37619 | 7.87885 | 14176 ft | 319 kts | 353° |
| 2026-05-04 19:28 | 51.39780 | 7.87573 | 14017 ft | 301 kts | 353° |
| 2026-05-04 19:28 | 51.41731 | 7.87304 | 13991 ft | 270 kts | 353° |
| 2026-05-04 19:28 | 51.43515 | 7.87073 | 13993 ft | 244 kts | 353° |
| 2026-05-04 19:28 | 51.45140 | 7.86879 | 13993 ft | 221 kts | 353° |
| 2026-05-04 19:29 | 51.46540 | 7.86723 | 13988 ft | 201 kts | 354° |
| 2026-05-04 19:29 | 51.47833 | 7.87114 | 13942 ft | 185 kts | 37° |
| 2026-05-04 19:29 | 51.48618 | 7.88580 | 13911 ft | 165 kts | 62° |
| 2026-05-04 19:29 | 51.49215 | 7.90317 | 14021 ft | 199 kts | 63° |
| 2026-05-04 19:30 | 51.49937 | 7.92449 | 14056 ft | 234 kts | 63° |
| 2026-05-04 19:30 | 51.50767 | 7.94915 | 14061 ft | 272 kts | 63° |
| 2026-05-04 19:30 | 51.51713 | 7.97740 | 14037 ft | 288 kts | 63° |
| 2026-05-04 19:30 | 51.52634 | 8.00479 | 14019 ft | 284 kts | 63° |
| 2026-05-04 19:31 | 51.53560 | 8.03237 | 14034 ft | 288 kts | 63° |
| 2026-05-04 19:31 | 51.54508 | 8.06073 | 14014 ft | 287 kts | 63° |
| 2026-05-04 19:31 | 51.55497 | 8.08829 | 13997 ft | 286 kts | 52° |
| 2026-05-04 19:31 | 51.57034 | 8.10789 | 14012 ft | 284 kts | 23° |
| 2026-05-04 19:32 | 51.58908 | 8.11356 | 14010 ft | 281 kts | 354° |
| 2026-05-04 19:32 | 51.60728 | 8.10449 | 14015 ft | 276 kts | 327° |
| 2026-05-04 19:32 | 51.62335 | 8.08747 | 14017 ft | 277 kts | 324° |
| 2026-05-04 19:32 | 51.63928 | 8.07021 | 14015 ft | 278 kts | 324° |
| 2026-05-04 19:33 | 51.65530 | 8.05277 | 14017 ft | 279 kts | 324° |
| 2026-05-04 19:33 | 51.67133 | 8.03527 | 14016 ft | 280 kts | 324° |
| 2026-05-04 19:33 | 51.68743 | 8.01761 | 14015 ft | 281 kts | 324° |
| 2026-05-04 19:33 | 51.70353 | 7.99992 | 14005 ft | 274 kts | 324° |
| 2026-05-04 19:34 | 51.71840 | 7.98360 | 14002 ft | 265 kts | 324° |
| 2026-05-04 19:34 | 51.73360 | 7.96700 | 14003 ft | 259 kts | 324° |
| 2026-05-04 19:34 | 51.74824 | 7.95101 | 14004 ft | 253 kts | 324° |
| 2026-05-04 19:34 | 51.76261 | 7.93534 | 14005 ft | 247 kts | 324° |
| 2026-05-04 19:35 | 51.77679 | 7.91987 | 14006 ft | 243 kts | 324° |
| 2026-05-04 19:35 | 51.79059 | 7.90476 | 14005 ft | 238 kts | 324° |
| 2026-05-04 19:35 | 51.80414 | 7.88993 | 14005 ft | 234 kts | 324° |
| 2026-05-04 19:35 | 51.81749 | 7.87528 | 14002 ft | 229 kts | 324° |
| 2026-05-04 19:36 | 51.83051 | 7.86094 | 14011 ft | 232 kts | 324° |
| 2026-05-04 19:36 | 51.84401 | 7.84601 | 14017 ft | 240 kts | 324° |
| 2026-05-04 19:36 | 51.85808 | 7.83031 | 14012 ft | 248 kts | 324° |
| 2026-05-04 19:36 | 51.87241 | 7.81429 | 14011 ft | 254 kts | 324° |
| 2026-05-04 19:37 | 51.88645 | 7.79703 | 13998 ft | 259 kts | 311° |
| 2026-05-04 19:37 | 51.89475 | 7.77172 | 14010 ft | 259 kts | 280° |
| 2026-05-04 19:37 | 51.89390 | 7.74327 | 14001 ft | 256 kts | 250° |
| 2026-05-04 19:37 | 51.88558 | 7.71751 | 14027 ft | 260 kts | 240° |
| 2026-05-04 19:38 | 51.87667 | 7.69207 | 14006 ft | 265 kts | 241° |
| 2026-05-04 19:38 | 51.86756 | 7.66583 | 14009 ft | 269 kts | 241° |
| 2026-05-04 19:38 | 51.85839 | 7.63931 | 14007 ft | 273 kts | 241° |
| 2026-05-04 19:38 | 51.84908 | 7.61240 | 14011 ft | 277 kts | 241° |
| 2026-05-04 19:39 | 51.83973 | 7.58537 | 14012 ft | 280 kts | 241° |
| 2026-05-04 19:39 | 51.83013 | 7.55764 | 14012 ft | 284 kts | 241° |
| 2026-05-04 19:39 | 51.82045 | 7.52970 | 14007 ft | 287 kts | 241° |
| 2026-05-04 19:39 | 51.81066 | 7.50145 | 14010 ft | 285 kts | 241° |
| 2026-05-04 19:40 | 51.80119 | 7.47418 | 14013 ft | 287 kts | 241° |
| 2026-05-04 19:40 | 51.79127 | 7.44567 | 14004 ft | 289 kts | 241° |
| 2026-05-04 19:40 | 51.78151 | 7.41760 | 14007 ft | 290 kts | 241° |
| 2026-05-04 19:40 | 51.77155 | 7.38899 | 14015 ft | 292 kts | 241° |
| 2026-05-04 19:41 | 51.76155 | 7.36032 | 14013 ft | 295 kts | 241° |
| 2026-05-04 19:41 | 51.75177 | 7.33232 | 14014 ft | 297 kts | 240° |
| 2026-05-04 19:41 | 51.74171 | 7.30352 | 14005 ft | 289 kts | 240° |
| 2026-05-04 19:41 | 51.73194 | 7.27562 | 14006 ft | 278 kts | 240° |
| 2026-05-04 19:42 | 51.72272 | 7.24929 | 13605 ft | 278 kts | 240° |
| 2026-05-04 19:42 | 51.71320 | 7.22215 | 13119 ft | 279 kts | 240° |
| 2026-05-04 19:42 | 51.70193 | 7.19694 | 12588 ft | 280 kts | 221° |
| 2026-05-04 19:42 | 51.68605 | 7.17909 | 12084 ft | 278 kts | 213° |
| 2026-05-04 19:43 | 51.67041 | 7.16256 | 11553 ft | 265 kts | 213° |
| 2026-05-04 19:43 | 51.65561 | 7.14683 | 11111 ft | 253 kts | 213° |
| 2026-05-04 19:43 | 51.64115 | 7.13143 | 10771 ft | 245 kts | 213° |
| 2026-05-04 19:43 | 51.62707 | 7.11644 | 10438 ft | 245 kts | 213° |
| 2026-05-04 19:44 | 51.61292 | 7.10137 | 10135 ft | 244 kts | 214° |
| 2026-05-04 19:44 | 51.60210 | 7.08178 | 10050 ft | 233 kts | 247° |
| 2026-05-04 19:44 | 51.60032 | 7.05621 | 10058 ft | 229 kts | 274° |
| 2026-05-04 19:44 | 51.60192 | 7.03114 | 10022 ft | 227 kts | 274° |
| 2026-05-04 19:45 | 51.60342 | 7.00616 | 10025 ft | 228 kts | 274° |
| 2026-05-04 19:45 | 51.60495 | 6.98102 | 10025 ft | 230 kts | 274° |
| 2026-05-04 19:45 | 51.60654 | 6.95514 | 10027 ft | 232 kts | 274° |
| 2026-05-04 19:45 | 51.60816 | 6.92947 | 10026 ft | 236 kts | 274° |
| 2026-05-04 19:46 | 51.60764 | 6.90325 | 10011 ft | 238 kts | 251° |
| 2026-05-04 19:46 | 51.59874 | 6.88132 | 10023 ft | 238 kts | 219° |
| 2026-05-04 19:46 | 51.58401 | 6.86855 | 10031 ft | 242 kts | 204° |
| 2026-05-04 19:46 | 51.56852 | 6.85789 | 10025 ft | 247 kts | 204° |
| 2026-05-04 19:47 | 51.55275 | 6.84684 | 10026 ft | 252 kts | 204° |
| 2026-05-04 19:47 | 51.53672 | 6.83555 | 10027 ft | 257 kts | 204° |
| 2026-05-04 19:47 | 51.52013 | 6.82388 | 9855 ft | 257 kts | 204° |
| 2026-05-04 19:47 | 51.50406 | 6.81256 | 9599 ft | 252 kts | 204° |
| 2026-05-04 19:48 | 51.48842 | 6.80154 | 9346 ft | 247 kts | 204° |
| 2026-05-04 19:48 | 51.47277 | 6.79060 | 9086 ft | 243 kts | 204° |
| 2026-05-04 19:48 | 51.45757 | 6.78005 | 8832 ft | 239 kts | 204° |
| 2026-05-04 19:48 | 51.44245 | 6.76964 | 8575 ft | 236 kts | 204° |
| 2026-05-04 19:49 | 51.42737 | 6.75927 | 8308 ft | 234 kts | 204° |
| 2026-05-04 19:49 | 51.41271 | 6.74907 | 8049 ft | 232 kts | 203° |
| 2026-05-04 19:49 | 51.39772 | 6.73991 | 7766 ft | 232 kts | 189° |
| 2026-05-04 19:49 | 51.38226 | 6.74361 | 7822 ft | 230 kts | 154° |
| 2026-05-04 19:50 | 51.37112 | 6.76070 | 8026 ft | 236 kts | 122° |
| 2026-05-04 19:50 | 51.36716 | 6.78632 | 8057 ft | 249 kts | 90° |
| 2026-05-04 19:50 | 51.37241 | 6.81280 | 8046 ft | 260 kts | 59° |
| 2026-05-04 19:50 | 51.38372 | 6.83544 | 8052 ft | 265 kts | 52° |
| 2026-05-04 19:51 | 51.39571 | 6.85840 | 7848 ft | 273 kts | 53° |
| 2026-05-04 19:51 | 51.40765 | 6.88152 | 7600 ft | 267 kts | 54° |
| 2026-05-04 19:51 | 51.41935 | 6.90418 | 7360 ft | 262 kts | 53° |